GTI8609 ZHEC-PAFA
Flight info
| Callsign | GTI8609 |
|---|---|
| Flight time | N/A |
| Altitude | 33100 |
| Route | URGEB9 URGEB R343 PK W116 JTN G327 LAMEN/N0493F331 A593 SADLI Y590 BEDAR Y591 BESMU Y14 SAMON Y142 GTC Y512 OATIS R580 ONEIL G469 PINTT A590 POETT J120 BET DCT CAWIN LIBER5 |
| Aircraft | B77L/H-SDE1E2E3FGHIJ2J3J4J5M1RWXY/LB1D1 |
Departure
| Time | N/A |
|---|---|
| Airport | Ezhou Huahu International Airport (ZHEC) |
Arrival
| Time | 2026-04-30 06:07 |
|---|---|
| Airport | Fairbanks International Airport (PAFA) |
| Time | Latitude | Longitude | Altitude | Speed | Heading |
|---|---|---|---|---|---|
| 2026-04-30 01:02 | 43.05586 | 150.00841 | 33156 ft | 515 kts | 38° |
| 2026-04-30 01:02 | 43.08064 | 150.04324 | 33150 ft | 514 kts | 38° |
| 2026-04-30 01:03 | 43.13043 | 150.11333 | 33169 ft | 515 kts | 38° |
| 2026-04-30 01:03 | 43.18008 | 150.18343 | 33164 ft | 514 kts | 38° |
| 2026-04-30 01:04 | 43.23003 | 150.25409 | 33165 ft | 514 kts | 38° |
| 2026-04-30 01:04 | 43.27939 | 150.32411 | 33164 ft | 514 kts | 38° |
| 2026-04-30 01:05 | 43.32900 | 150.39467 | 33160 ft | 514 kts | 38° |
| 2026-04-30 01:05 | 43.37861 | 150.46539 | 33157 ft | 512 kts | 38° |
| 2026-04-30 01:06 | 43.42757 | 150.53537 | 33151 ft | 513 kts | 39° |
| 2026-04-30 01:06 | 43.47699 | 150.60616 | 33159 ft | 513 kts | 39° |
| 2026-04-30 01:07 | 43.52624 | 150.67693 | 33146 ft | 511 kts | 39° |
| 2026-04-30 01:07 | 43.57545 | 150.74779 | 33145 ft | 513 kts | 40° |
| 2026-04-30 01:08 | 43.62430 | 150.81833 | 33142 ft | 511 kts | 40° |
| 2026-04-30 01:08 | 43.67336 | 150.88931 | 33138 ft | 513 kts | 40° |
| 2026-04-30 01:09 | 43.72236 | 150.96040 | 33141 ft | 513 kts | 40° |
| 2026-04-30 01:09 | 43.77126 | 151.03155 | 33135 ft | 513 kts | 40° |
| 2026-04-30 01:10 | 43.82038 | 151.10318 | 33134 ft | 512 kts | 40° |
| 2026-04-30 01:10 | 43.86919 | 151.17456 | 33137 ft | 512 kts | 40° |
| 2026-04-30 01:11 | 43.91786 | 151.24591 | 33139 ft | 510 kts | 40° |
| 2026-04-30 01:11 | 43.96647 | 151.31734 | 33138 ft | 510 kts | 40° |
| 2026-04-30 01:12 | 44.01498 | 151.38882 | 33146 ft | 509 kts | 40° |
| 2026-04-30 01:12 | 44.06302 | 151.45978 | 33132 ft | 508 kts | 40° |
| 2026-04-30 01:13 | 44.11158 | 151.53166 | 33143 ft | 511 kts | 40° |
| 2026-04-30 01:13 | 44.16014 | 151.60379 | 33138 ft | 509 kts | 40° |
| 2026-04-30 01:14 | 44.20830 | 151.67546 | 33128 ft | 510 kts | 41° |
| 2026-04-30 01:14 | 44.25667 | 151.74764 | 33120 ft | 510 kts | 41° |
| 2026-04-30 01:15 | 44.30468 | 151.81947 | 33122 ft | 510 kts | 41° |
| 2026-04-30 01:15 | 44.35317 | 151.89223 | 33118 ft | 509 kts | 41° |
| 2026-04-30 01:16 | 44.40111 | 151.96431 | 33118 ft | 511 kts | 41° |
| 2026-04-30 01:16 | 44.44926 | 152.03693 | 33117 ft | 509 kts | 41° |
| 2026-04-30 01:17 | 44.49718 | 152.10936 | 33116 ft | 510 kts | 41° |
| 2026-04-30 01:17 | 44.54536 | 152.18240 | 33119 ft | 510 kts | 41° |
| 2026-04-30 01:18 | 44.59315 | 152.25503 | 33114 ft | 508 kts | 41° |
| 2026-04-30 01:18 | 44.64078 | 152.32759 | 33113 ft | 509 kts | 41° |
| 2026-04-30 01:19 | 44.68861 | 152.40068 | 33111 ft | 507 kts | 41° |
| 2026-04-30 01:19 | 44.73612 | 152.47345 | 33109 ft | 507 kts | 42° |
| 2026-04-30 01:20 | 44.78393 | 152.54686 | 33107 ft | 509 kts | 42° |
| 2026-04-30 01:20 | 44.83155 | 152.62019 | 33104 ft | 508 kts | 42° |
| 2026-04-30 01:21 | 44.87897 | 152.69341 | 33095 ft | 508 kts | 43° |
| 2026-04-30 01:21 | 44.92610 | 152.76634 | 33087 ft | 506 kts | 43° |
| 2026-04-30 01:22 | 44.97359 | 152.84004 | 33082 ft | 508 kts | 43° |
| 2026-04-30 01:22 | 45.02100 | 152.91383 | 33074 ft | 507 kts | 43° |
| 2026-04-30 01:23 | 45.06825 | 152.98755 | 33083 ft | 507 kts | 43° |
| 2026-04-30 01:23 | 45.11548 | 153.06143 | 33077 ft | 506 kts | 43° |
| 2026-04-30 01:24 | 45.16273 | 153.13554 | 33073 ft | 507 kts | 43° |
| 2026-04-30 01:24 | 45.20975 | 153.20950 | 33078 ft | 506 kts | 43° |
| 2026-04-30 01:25 | 45.25660 | 153.28339 | 33072 ft | 506 kts | 43° |
| 2026-04-30 01:25 | 45.30339 | 153.35738 | 33073 ft | 506 kts | 43° |
| 2026-04-30 01:26 | 45.35013 | 153.43147 | 33073 ft | 505 kts | 43° |
| 2026-04-30 01:26 | 45.39684 | 153.50572 | 33075 ft | 507 kts | 43° |
| 2026-04-30 01:27 | 45.44370 | 153.58041 | 33071 ft | 505 kts | 43° |
| 2026-04-30 01:27 | 45.49036 | 153.65498 | 33061 ft | 506 kts | 44° |
| 2026-04-30 01:28 | 45.53692 | 153.72961 | 33059 ft | 507 kts | 44° |
| 2026-04-30 01:28 | 45.58338 | 153.80513 | 33054 ft | 506 kts | 44° |
| 2026-04-30 01:29 | 45.62968 | 153.88066 | 33043 ft | 507 kts | 44° |
| 2026-04-30 01:29 | 45.67587 | 153.95619 | 33041 ft | 506 kts | 44° |
| 2026-04-30 01:30 | 45.72198 | 154.03181 | 33035 ft | 505 kts | 44° |
| 2026-04-30 01:30 | 45.76823 | 154.10782 | 33030 ft | 506 kts | 44° |
| 2026-04-30 01:31 | 45.81412 | 154.18347 | 33033 ft | 505 kts | 44° |
| 2026-04-30 01:31 | 45.86012 | 154.25949 | 33031 ft | 505 kts | 44° |
| 2026-04-30 01:32 | 45.90597 | 154.33550 | 33020 ft | 505 kts | 45° |
| 2026-04-30 01:32 | 45.95184 | 154.41171 | 33025 ft | 505 kts | 45° |
| 2026-04-30 01:33 | 45.99759 | 154.48795 | 33019 ft | 504 kts | 45° |
| 2026-04-30 01:33 | 46.04330 | 154.56433 | 33015 ft | 505 kts | 45° |
| 2026-04-30 01:34 | 46.08884 | 154.64064 | 33009 ft | 505 kts | 45° |
| 2026-04-30 01:34 | 46.13460 | 154.71751 | 32998 ft | 506 kts | 45° |
| 2026-04-30 01:35 | 46.18019 | 154.79434 | 32993 ft | 506 kts | 45° |
| 2026-04-30 01:35 | 46.22571 | 154.87125 | 32987 ft | 505 kts | 46° |
| 2026-04-30 01:36 | 46.27139 | 154.94867 | 32983 ft | 505 kts | 46° |
| 2026-04-30 01:36 | 46.31680 | 155.02583 | 32982 ft | 505 kts | 46° |
| 2026-04-30 01:37 | 46.36182 | 155.10252 | 32975 ft | 504 kts | 46° |
| 2026-04-30 01:37 | 46.40711 | 155.17992 | 32977 ft | 505 kts | 46° |
| 2026-04-30 01:38 | 46.45251 | 155.25772 | 32973 ft | 505 kts | 46° |
| 2026-04-30 01:38 | 46.49752 | 155.33505 | 32964 ft | 504 kts | 46° |
| 2026-04-30 01:39 | 46.54273 | 155.41296 | 32970 ft | 504 kts | 46° |
| 2026-04-30 01:39 | 46.58769 | 155.49066 | 32964 ft | 504 kts | 46° |
| 2026-04-30 01:40 | 46.63258 | 155.56845 | 32953 ft | 504 kts | 46° |
| 2026-04-30 01:40 | 46.67743 | 155.64639 | 32947 ft | 504 kts | 46° |
| 2026-04-30 01:41 | 46.72220 | 155.72444 | 32942 ft | 504 kts | 46° |
| 2026-04-30 01:41 | 46.76673 | 155.80228 | 32931 ft | 502 kts | 46° |
| 2026-04-30 01:42 | 46.81151 | 155.88075 | 32930 ft | 503 kts | 46° |
| 2026-04-30 01:42 | 46.85612 | 155.95917 | 32936 ft | 502 kts | 47° |
| 2026-04-30 01:43 | 46.90035 | 156.03714 | 32927 ft | 502 kts | 47° |
| 2026-04-30 01:43 | 46.94492 | 156.11594 | 32927 ft | 502 kts | 47° |
| 2026-04-30 01:44 | 46.98938 | 156.19476 | 32920 ft | 501 kts | 47° |
| 2026-04-30 01:44 | 47.03358 | 156.27336 | 32914 ft | 501 kts | 47° |
| 2026-04-30 01:45 | 47.07743 | 156.35156 | 32915 ft | 501 kts | 47° |
| 2026-04-30 01:45 | 47.12165 | 156.43065 | 32913 ft | 500 kts | 47° |
| 2026-04-30 01:46 | 47.16573 | 156.50969 | 32904 ft | 500 kts | 47° |
| 2026-04-30 01:46 | 47.20948 | 156.58839 | 32901 ft | 499 kts | 47° |
| 2026-04-30 01:47 | 47.25338 | 156.66757 | 32903 ft | 500 kts | 47° |
| 2026-04-30 01:47 | 47.29730 | 156.74703 | 32893 ft | 500 kts | 47° |
| 2026-04-30 01:48 | 47.34094 | 156.82623 | 32888 ft | 500 kts | 47° |
| 2026-04-30 01:48 | 47.38446 | 156.90541 | 32887 ft | 499 kts | 48° |
| 2026-04-30 01:49 | 47.42781 | 156.98454 | 32877 ft | 498 kts | 48° |
| 2026-04-30 01:49 | 47.47115 | 157.06387 | 32868 ft | 497 kts | 47° |
| 2026-04-30 01:50 | 47.51474 | 157.14386 | 32876 ft | 497 kts | 48° |
| 2026-04-30 01:50 | 47.55794 | 157.22340 | 32866 ft | 497 kts | 48° |
| 2026-04-30 01:51 | 47.60089 | 157.30272 | 32863 ft | 497 kts | 47° |
| 2026-04-30 01:51 | 47.64411 | 157.38275 | 32858 ft | 497 kts | 47° |
| 2026-04-30 01:52 | 47.68686 | 157.46214 | 32854 ft | 496 kts | 48° |
| 2026-04-30 01:52 | 47.73000 | 157.54250 | 32839 ft | 496 kts | 48° |
| 2026-04-30 01:53 | 47.77271 | 157.62228 | 32839 ft | 495 kts | 47° |
| 2026-04-30 01:53 | 47.81536 | 157.70221 | 32836 ft | 495 kts | 49° |
| 2026-04-30 01:54 | 47.85801 | 157.78236 | 32823 ft | 494 kts | 49° |
| 2026-04-30 01:54 | 47.90046 | 157.86238 | 32818 ft | 493 kts | 49° |
| 2026-04-30 01:55 | 47.94306 | 157.94290 | 32817 ft | 494 kts | 49° |
| 2026-04-30 01:55 | 47.98537 | 158.02312 | 32808 ft | 495 kts | 49° |
| 2026-04-30 01:56 | 48.02754 | 158.10332 | 32797 ft | 493 kts | 49° |
| 2026-04-30 01:56 | 48.06972 | 158.18378 | 32803 ft | 493 kts | 49° |
| 2026-04-30 01:57 | 48.11188 | 158.26442 | 32803 ft | 492 kts | 49° |
| 2026-04-30 01:57 | 48.15373 | 158.34470 | 32794 ft | 491 kts | 49° |
| 2026-04-30 01:58 | 48.19556 | 158.42522 | 32799 ft | 492 kts | 49° |
| 2026-04-30 01:58 | 48.23743 | 158.50603 | 32808 ft | 492 kts | 49° |
| 2026-04-30 01:59 | 48.29988 | 158.62701 | 32799 ft | 490 kts | 49° |
| 2026-04-30 02:00 | 48.34140 | 158.70775 | 32801 ft | 490 kts | 50° |
| 2026-04-30 02:00 | 48.38293 | 158.78876 | 32793 ft | 490 kts | 50° |
| 2026-04-30 02:01 | 48.42440 | 158.86989 | 32792 ft | 489 kts | 50° |
| 2026-04-30 02:01 | 48.46565 | 158.95081 | 32789 ft | 489 kts | 50° |
| 2026-04-30 02:02 | 48.50689 | 159.03197 | 32781 ft | 488 kts | 50° |
| 2026-04-30 02:02 | 48.54800 | 159.11313 | 32771 ft | 488 kts | 50° |
| 2026-04-30 02:03 | 48.58900 | 159.19431 | 32763 ft | 488 kts | 50° |
| 2026-04-30 02:03 | 48.62980 | 159.27534 | 32754 ft | 488 kts | 50° |
| 2026-04-30 02:04 | 48.67091 | 159.35721 | 32756 ft | 487 kts | 50° |
| 2026-04-30 02:04 | 48.71164 | 159.43860 | 32760 ft | 487 kts | 50° |
| 2026-04-30 02:05 | 48.75245 | 159.52037 | 32751 ft | 486 kts | 50° |
| 2026-04-30 02:05 | 48.79298 | 159.60185 | 32750 ft | 487 kts | 50° |
| 2026-04-30 02:06 | 48.83377 | 159.68410 | 32752 ft | 487 kts | 51° |
| 2026-04-30 02:06 | 48.87406 | 159.76558 | 32742 ft | 486 kts | 51° |
| 2026-04-30 02:07 | 48.91477 | 159.84816 | 32743 ft | 486 kts | 51° |
| 2026-04-30 02:07 | 48.95494 | 159.92990 | 32744 ft | 486 kts | 51° |
| 2026-04-30 02:08 | 48.99524 | 160.01247 | 32740 ft | 486 kts | 51° |
| 2026-04-30 02:08 | 49.03451 | 160.09596 | 32737 ft | 486 kts | 52° |
| 2026-04-30 02:09 | 49.07367 | 160.17966 | 32745 ft | 486 kts | 52° |
| 2026-04-30 02:09 | 49.11255 | 160.26308 | 32732 ft | 485 kts | 52° |
| 2026-04-30 02:10 | 49.15156 | 160.34701 | 32745 ft | 485 kts | 52° |
| 2026-04-30 02:10 | 49.19030 | 160.43065 | 32748 ft | 484 kts | 52° |
| 2026-04-30 02:11 | 49.22916 | 160.51479 | 32730 ft | 485 kts | 52° |
| 2026-04-30 02:11 | 49.26763 | 160.59834 | 32748 ft | 485 kts | 52° |
| 2026-04-30 02:12 | 49.30655 | 160.68317 | 32731 ft | 485 kts | 53° |
| 2026-04-30 02:12 | 49.34503 | 160.76729 | 32732 ft | 484 kts | 53° |
| 2026-04-30 02:13 | 49.38345 | 160.85155 | 32729 ft | 484 kts | 53° |
| 2026-04-30 02:13 | 49.42194 | 160.93620 | 32723 ft | 484 kts | 53° |
| 2026-04-30 02:14 | 49.46023 | 161.02071 | 32726 ft | 483 kts | 53° |
| 2026-04-30 02:14 | 49.49855 | 161.10553 | 32729 ft | 484 kts | 53° |
| 2026-04-30 02:15 | 49.53654 | 161.19034 | 32711 ft | 484 kts | 53° |
| 2026-04-30 02:15 | 49.57437 | 161.27548 | 32719 ft | 484 kts | 53° |
| 2026-04-30 02:16 | 49.61227 | 161.36104 | 32722 ft | 484 kts | 54° |
| 2026-04-30 02:16 | 49.64990 | 161.44620 | 32724 ft | 483 kts | 54° |
| 2026-04-30 02:17 | 49.68748 | 161.53155 | 32710 ft | 483 kts | 54° |
| 2026-04-30 02:17 | 49.72514 | 161.61734 | 32709 ft | 482 kts | 54° |
| 2026-04-30 02:18 | 49.76258 | 161.70291 | 32711 ft | 481 kts | 54° |
| 2026-04-30 02:18 | 49.79975 | 161.78813 | 32691 ft | 482 kts | 54° |
| 2026-04-30 02:19 | 49.83712 | 161.87408 | 32695 ft | 481 kts | 55° |
| 2026-04-30 02:19 | 49.87439 | 161.96008 | 32699 ft | 482 kts | 55° |
| 2026-04-30 02:20 | 49.91152 | 162.04605 | 32697 ft | 481 kts | 55° |
| 2026-04-30 02:20 | 49.94860 | 162.13217 | 32711 ft | 481 kts | 55° |
| 2026-04-30 02:21 | 49.98574 | 162.21872 | 32701 ft | 481 kts | 55° |
| 2026-04-30 02:21 | 50.02246 | 162.30458 | 32703 ft | 481 kts | 55° |
| 2026-04-30 02:22 | 50.05926 | 162.39088 | 32701 ft | 481 kts | 55° |
| 2026-04-30 02:22 | 50.09607 | 162.47751 | 32698 ft | 481 kts | 55° |
| 2026-04-30 02:23 | 50.13301 | 162.56473 | 32686 ft | 481 kts | 55° |
| 2026-04-30 02:23 | 50.16967 | 162.65157 | 32691 ft | 482 kts | 56° |
| 2026-04-30 02:24 | 50.20627 | 162.73856 | 32691 ft | 481 kts | 56° |
| 2026-04-30 02:24 | 50.24250 | 162.82495 | 32694 ft | 480 kts | 56° |
| 2026-04-30 02:25 | 50.27908 | 162.91246 | 32680 ft | 480 kts | 56° |
| 2026-04-30 02:25 | 50.31553 | 162.99995 | 32678 ft | 480 kts | 56° |
| 2026-04-30 02:26 | 50.35185 | 163.08743 | 32693 ft | 480 kts | 56° |
| 2026-04-30 02:26 | 50.38792 | 163.17458 | 32697 ft | 480 kts | 57° |
| 2026-04-30 02:27 | 50.42397 | 163.26198 | 32676 ft | 480 kts | 57° |
| 2026-04-30 02:27 | 50.46017 | 163.35005 | 32684 ft | 481 kts | 57° |
| 2026-04-30 02:28 | 50.49600 | 163.43751 | 32685 ft | 481 kts | 57° |
| 2026-04-30 02:28 | 50.53222 | 163.52620 | 32684 ft | 480 kts | 57° |
| 2026-04-30 02:29 | 50.56808 | 163.61433 | 32665 ft | 480 kts | 57° |
| 2026-04-30 02:29 | 50.60408 | 163.70311 | 32678 ft | 480 kts | 58° |
| 2026-04-30 02:30 | 50.63989 | 163.79170 | 32675 ft | 480 kts | 58° |
| 2026-04-30 02:30 | 50.67549 | 163.88008 | 32655 ft | 480 kts | 58° |
| 2026-04-30 02:31 | 50.71097 | 163.96846 | 32661 ft | 480 kts | 58° |
| 2026-04-30 02:31 | 50.74663 | 164.05759 | 32651 ft | 480 kts | 58° |
| 2026-04-30 02:32 | 50.78217 | 164.14673 | 32668 ft | 479 kts | 58° |
| 2026-04-30 02:32 | 50.81736 | 164.23531 | 32660 ft | 479 kts | 58° |
| 2026-04-30 02:33 | 50.85282 | 164.32484 | 32664 ft | 480 kts | 58° |
| 2026-04-30 02:33 | 50.88792 | 164.41377 | 32670 ft | 479 kts | 58° |
| 2026-04-30 02:34 | 50.92308 | 164.50282 | 32659 ft | 479 kts | 58° |
| 2026-04-30 02:34 | 50.95837 | 164.59213 | 32662 ft | 479 kts | 58° |
| 2026-04-30 02:35 | 50.99362 | 164.68166 | 32675 ft | 479 kts | 58° |
| 2026-04-30 02:35 | 51.02883 | 164.77142 | 32665 ft | 478 kts | 59° |
| 2026-04-30 02:36 | 51.06373 | 164.86070 | 32666 ft | 478 kts | 58° |
| 2026-04-30 02:36 | 51.09868 | 164.95044 | 32672 ft | 479 kts | 58° |
| 2026-04-30 02:37 | 51.13354 | 165.04025 | 32653 ft | 478 kts | 58° |
| 2026-04-30 02:37 | 51.16818 | 165.12981 | 32670 ft | 479 kts | 58° |
| 2026-04-30 02:38 | 51.20299 | 165.22009 | 32669 ft | 478 kts | 59° |
| 2026-04-30 02:38 | 51.23753 | 165.31000 | 32653 ft | 478 kts | 59° |
| 2026-04-30 02:39 | 51.27206 | 165.40024 | 32650 ft | 478 kts | 59° |
| 2026-04-30 02:39 | 51.30651 | 165.49054 | 32638 ft | 479 kts | 59° |
| 2026-04-30 02:40 | 51.34100 | 165.58130 | 32644 ft | 478 kts | 59° |
| 2026-04-30 02:40 | 51.37539 | 165.67191 | 32659 ft | 477 kts | 59° |
| 2026-04-30 02:41 | 51.40979 | 165.76247 | 32635 ft | 477 kts | 59° |
| 2026-04-30 02:41 | 51.44412 | 165.85315 | 32641 ft | 477 kts | 59° |
| 2026-04-30 02:42 | 51.47813 | 165.94334 | 32649 ft | 477 kts | 59° |
| 2026-04-30 02:42 | 51.51233 | 166.03435 | 32654 ft | 477 kts | 59° |
| 2026-04-30 02:43 | 51.54644 | 166.12547 | 32652 ft | 477 kts | 60° |
| 2026-04-30 02:43 | 51.58046 | 166.21663 | 32656 ft | 477 kts | 60° |
| 2026-04-30 02:44 | 51.61429 | 166.30763 | 32633 ft | 476 kts | 60° |
| 2026-04-30 02:44 | 51.64808 | 166.39888 | 32651 ft | 476 kts | 60° |
| 2026-04-30 02:45 | 51.68183 | 166.49031 | 32628 ft | 476 kts | 60° |
| 2026-04-30 02:45 | 51.71563 | 166.58223 | 32633 ft | 476 kts | 60° |
| 2026-04-30 02:46 | 51.74931 | 166.67415 | 32652 ft | 476 kts | 61° |
| 2026-04-30 02:46 | 51.78266 | 166.76549 | 32648 ft | 476 kts | 61° |
| 2026-04-30 02:47 | 51.81605 | 166.85728 | 32643 ft | 476 kts | 61° |
| 2026-04-30 02:47 | 51.84942 | 166.94933 | 32649 ft | 476 kts | 61° |
| 2026-04-30 02:48 | 51.88282 | 167.04181 | 32635 ft | 476 kts | 61° |
| 2026-04-30 02:48 | 51.91597 | 167.13394 | 32643 ft | 475 kts | 61° |
| 2026-04-30 02:49 | 51.94893 | 167.22588 | 32631 ft | 476 kts | 61° |
| 2026-04-30 02:49 | 51.98209 | 167.31869 | 32618 ft | 475 kts | 61° |
| 2026-04-30 02:50 | 52.01521 | 167.41176 | 32619 ft | 476 kts | 61° |
| 2026-04-30 02:50 | 52.04795 | 167.50409 | 32618 ft | 476 kts | 61° |
| 2026-04-30 02:51 | 52.08086 | 167.59724 | 32624 ft | 476 kts | 61° |
| 2026-04-30 02:51 | 52.11353 | 167.69006 | 32616 ft | 474 kts | 62° |
| 2026-04-30 02:52 | 52.14614 | 167.78307 | 32625 ft | 475 kts | 62° |
| 2026-04-30 02:52 | 52.17880 | 167.87651 | 32634 ft | 474 kts | 63° |
| 2026-04-30 02:53 | 52.21123 | 167.96970 | 32636 ft | 476 kts | 63° |
| 2026-04-30 02:53 | 52.24378 | 168.06357 | 32622 ft | 476 kts | 63° |
| 2026-04-30 02:54 | 52.27616 | 168.15729 | 32636 ft | 476 kts | 63° |
| 2026-04-30 02:54 | 52.28359 | 168.17885 | 32631 ft | 476 kts | 63° |
| 2026-04-30 03:13 | 52.28847 | 168.19301 | 32628 ft | 476 kts | 63° |
| 2026-04-30 03:13 | 52.34559 | 168.35945 | 32619 ft | 476 kts | 63° |
| 2026-04-30 03:14 | 52.40973 | 168.54768 | 32623 ft | 477 kts | 63° |
| 2026-04-30 03:14 | 52.47329 | 168.73560 | 32633 ft | 478 kts | 64° |
| 2026-04-30 03:15 | 52.53654 | 168.92406 | 32623 ft | 478 kts | 64° |
| 2026-04-30 03:15 | 52.59963 | 169.11346 | 32610 ft | 477 kts | 64° |
| 2026-04-30 03:16 | 52.66186 | 169.30176 | 32624 ft | 477 kts | 64° |
| 2026-04-30 03:16 | 52.72407 | 169.49141 | 32613 ft | 478 kts | 64° |
| 2026-04-30 03:17 | 52.78636 | 169.68277 | 32620 ft | 477 kts | 65° |
| 2026-04-30 03:17 | 52.84642 | 169.86873 | 32617 ft | 477 kts | 65° |
| 2026-04-30 03:18 | 52.90727 | 170.05859 | 32611 ft | 476 kts | 65° |
| 2026-04-30 03:18 | 52.97796 | 170.23483 | 32618 ft | 482 kts | 51° |
| 2026-04-30 03:19 | 53.06309 | 170.39681 | 32615 ft | 482 kts | 51° |
| 2026-04-30 03:19 | 53.14815 | 170.56137 | 32620 ft | 484 kts | 52° |
| 2026-04-30 03:20 | 53.23158 | 170.72435 | 32607 ft | 485 kts | 53° |
| 2026-04-30 03:20 | 53.31511 | 170.88873 | 32611 ft | 486 kts | 53° |
| 2026-04-30 03:21 | 53.39772 | 171.05244 | 32610 ft | 486 kts | 53° |
| 2026-04-30 03:21 | 53.48036 | 171.21733 | 32621 ft | 489 kts | 53° |
| 2026-04-30 03:22 | 53.56285 | 171.38298 | 32616 ft | 489 kts | 53° |
| 2026-04-30 03:22 | 53.64660 | 171.55234 | 32614 ft | 491 kts | 53° |
| 2026-04-30 03:23 | 53.72968 | 171.72145 | 32629 ft | 493 kts | 54° |
| 2026-04-30 03:23 | 53.81324 | 171.89273 | 32625 ft | 492 kts | 54° |
| 2026-04-30 03:24 | 53.89725 | 172.06615 | 32626 ft | 496 kts | 54° |
| 2026-04-30 03:24 | 53.98156 | 172.24139 | 32623 ft | 497 kts | 54° |
| 2026-04-30 03:25 | 54.06635 | 172.41890 | 32629 ft | 497 kts | 54° |
| 2026-04-30 03:25 | 54.15218 | 172.59990 | 32620 ft | 498 kts | 54° |
| 2026-04-30 03:26 | 54.23746 | 172.78104 | 32611 ft | 498 kts | 55° |
| 2026-04-30 03:26 | 54.27226 | 172.87820 | 32624 ft | 493 kts | 67° |
| 2026-04-30 03:26 | 54.30242 | 172.98039 | 32621 ft | 494 kts | 67° |
| 2026-04-30 03:27 | 54.36297 | 173.18866 | 32617 ft | 494 kts | 68° |
| 2026-04-30 03:27 | 54.42295 | 173.39746 | 32628 ft | 497 kts | 68° |
| 2026-04-30 03:28 | 54.48313 | 173.60906 | 32619 ft | 496 kts | 67° |
| 2026-04-30 03:28 | 54.54317 | 173.82213 | 32624 ft | 497 kts | 68° |
| 2026-04-30 03:29 | 54.60269 | 174.03532 | 32622 ft | 498 kts | 68° |
| 2026-04-30 03:29 | 54.66177 | 174.24892 | 32627 ft | 499 kts | 68° |
| 2026-04-30 03:30 | 54.72032 | 174.46258 | 32618 ft | 501 kts | 68° |
| 2026-04-30 03:30 | 54.77916 | 174.67931 | 32624 ft | 501 kts | 69° |
| 2026-04-30 03:31 | 54.83772 | 174.89710 | 32632 ft | 503 kts | 69° |
| 2026-04-30 03:31 | 54.89590 | 175.11551 | 32620 ft | 503 kts | 68° |
| 2026-04-30 03:32 | 54.95351 | 175.33392 | 32623 ft | 506 kts | 69° |
| 2026-04-30 03:32 | 55.01151 | 175.55595 | 32627 ft | 505 kts | 68° |
| 2026-04-30 03:33 | 55.06900 | 175.77823 | 32619 ft | 506 kts | 69° |
| 2026-04-30 03:33 | 55.12579 | 175.99997 | 32619 ft | 507 kts | 69° |
| 2026-04-30 03:34 | 55.18236 | 176.22311 | 32615 ft | 508 kts | 69° |
| 2026-04-30 03:34 | 55.23917 | 176.44943 | 32617 ft | 508 kts | 69° |
| 2026-04-30 03:35 | 55.29550 | 176.67616 | 32602 ft | 509 kts | 70° |
| 2026-04-30 03:35 | 55.35102 | 176.90198 | 32608 ft | 511 kts | 70° |
| 2026-04-30 03:36 | 55.40664 | 177.13054 | 32606 ft | 512 kts | 69° |
| 2026-04-30 03:36 | 55.46181 | 177.35962 | 32612 ft | 511 kts | 69° |
| 2026-04-30 03:37 | 55.51660 | 177.58960 | 32616 ft | 514 kts | 69° |
| 2026-04-30 03:37 | 55.57082 | 177.81957 | 32612 ft | 513 kts | 70° |
| 2026-04-30 03:38 | 55.62043 | 178.03223 | 32609 ft | 512 kts | 70° |
| 2026-04-30 03:38 | 55.64729 | 178.14822 | 32609 ft | 512 kts | 70° |
| 2026-04-30 03:39 | 55.67420 | 178.26509 | 32612 ft | 514 kts | 70° |
| 2026-04-30 03:39 | 55.70094 | 178.38187 | 32616 ft | 514 kts | 70° |
| 2026-04-30 03:40 | 55.72737 | 178.49902 | 32607 ft | 514 kts | 70° |
| 2026-04-30 03:40 | 55.75361 | 178.61673 | 32603 ft | 515 kts | 70° |
| 2026-04-30 03:41 | 55.77968 | 178.73427 | 32600 ft | 515 kts | 71° |
| 2026-04-30 03:41 | 55.80585 | 178.85289 | 32601 ft | 515 kts | 71° |
| 2026-04-30 03:42 | 55.83178 | 178.97111 | 32610 ft | 515 kts | 71° |
| 2026-04-30 03:42 | 55.85755 | 179.08923 | 32620 ft | 516 kts | 71° |
| 2026-04-30 03:43 | 55.88321 | 179.20754 | 32616 ft | 515 kts | 71° |
| 2026-04-30 03:43 | 55.90887 | 179.32649 | 32612 ft | 516 kts | 71° |
| 2026-04-30 03:44 | 55.93438 | 179.44548 | 32609 ft | 515 kts | 71° |
| 2026-04-30 03:44 | 55.95964 | 179.56393 | 32613 ft | 517 kts | 71° |
| 2026-04-30 03:45 | 55.98495 | 179.68335 | 32603 ft | 515 kts | 71° |
| 2026-04-30 03:45 | 56.01011 | 179.80275 | 32589 ft | 515 kts | 71° |
| 2026-04-30 03:46 | 56.03519 | 179.92250 | 32586 ft | 517 kts | 71° |
| 2026-04-30 03:46 | 56.06017 | -179.95754 | 32584 ft | 517 kts | 71° |
| 2026-04-30 03:47 | 56.08509 | -179.83714 | 32594 ft | 517 kts | 71° |
| 2026-04-30 03:47 | 56.10968 | -179.71764 | 32590 ft | 516 kts | 71° |
| 2026-04-30 03:48 | 56.13435 | -179.59701 | 32589 ft | 517 kts | 71° |
| 2026-04-30 03:48 | 56.15882 | -179.47662 | 32585 ft | 517 kts | 72° |
| 2026-04-30 03:49 | 56.18321 | -179.35594 | 32582 ft | 518 kts | 72° |
| 2026-04-30 03:49 | 56.20749 | -179.23502 | 32584 ft | 518 kts | 72° |
| 2026-04-30 03:50 | 56.23176 | -179.11342 | 32587 ft | 518 kts | 72° |
| 2026-04-30 03:50 | 56.25590 | -178.99175 | 32596 ft | 520 kts | 72° |
| 2026-04-30 03:51 | 56.27988 | -178.87007 | 32589 ft | 517 kts | 72° |
| 2026-04-30 03:51 | 56.30373 | -178.74832 | 32576 ft | 518 kts | 71° |
| 2026-04-30 03:52 | 56.32756 | -178.62595 | 32574 ft | 519 kts | 71° |
| 2026-04-30 03:52 | 56.35112 | -178.50418 | 32573 ft | 518 kts | 71° |
| 2026-04-30 03:53 | 56.37466 | -178.38168 | 32572 ft | 521 kts | 72° |
| 2026-04-30 03:53 | 56.39814 | -178.25876 | 32565 ft | 519 kts | 72° |
| 2026-04-30 03:54 | 56.42151 | -178.13567 | 32571 ft | 520 kts | 72° |
| 2026-04-30 03:54 | 56.44477 | -178.01228 | 32576 ft | 521 kts | 72° |
| 2026-04-30 03:55 | 56.46799 | -177.88835 | 32581 ft | 519 kts | 72° |
| 2026-04-30 03:55 | 56.49103 | -177.76456 | 32575 ft | 521 kts | 72° |
| 2026-04-30 03:56 | 56.51381 | -177.64136 | 32578 ft | 521 kts | 72° |
| 2026-04-30 03:56 | 56.53664 | -177.51706 | 32566 ft | 519 kts | 72° |
| 2026-04-30 03:57 | 56.55929 | -177.39293 | 32571 ft | 521 kts | 72° |
| 2026-04-30 03:57 | 56.58192 | -177.26808 | 32562 ft | 522 kts | 73° |
| 2026-04-30 03:58 | 56.60435 | -177.14346 | 32562 ft | 523 kts | 73° |
| 2026-04-30 03:58 | 56.62674 | -177.01829 | 32560 ft | 521 kts | 72° |
| 2026-04-30 03:59 | 56.64878 | -176.89415 | 32567 ft | 522 kts | 72° |
| 2026-04-30 03:59 | 56.67096 | -176.76843 | 32568 ft | 522 kts | 72° |
| 2026-04-30 04:00 | 56.69297 | -176.64281 | 32571 ft | 523 kts | 72° |
| 2026-04-30 04:00 | 56.71473 | -176.51773 | 32569 ft | 522 kts | 72° |
| 2026-04-30 04:01 | 56.73650 | -176.39171 | 32567 ft | 523 kts | 72° |
| 2026-04-30 04:01 | 56.75805 | -176.26611 | 32557 ft | 524 kts | 73° |
| 2026-04-30 04:02 | 56.77963 | -176.13945 | 32554 ft | 523 kts | 73° |
| 2026-04-30 04:02 | 56.80106 | -176.01277 | 32548 ft | 524 kts | 73° |
| 2026-04-30 04:03 | 56.82219 | -175.88695 | 32550 ft | 524 kts | 73° |
| 2026-04-30 04:03 | 56.84920 | -175.76265 | 32555 ft | 525 kts | 64° |
| 2026-04-30 04:04 | 56.87963 | -175.64276 | 32560 ft | 523 kts | 64° |
| 2026-04-30 04:04 | 56.90971 | -175.52150 | 32551 ft | 524 kts | 65° |
| 2026-04-30 04:05 | 56.93934 | -175.40006 | 32552 ft | 524 kts | 65° |
| 2026-04-30 04:05 | 56.96877 | -175.27795 | 32546 ft | 524 kts | 66° |
| 2026-04-30 04:06 | 56.99784 | -175.15631 | 32551 ft | 526 kts | 66° |
| 2026-04-30 04:06 | 57.02686 | -175.03391 | 32554 ft | 526 kts | 66° |
| 2026-04-30 04:07 | 57.05600 | -174.91019 | 32548 ft | 527 kts | 66° |
| 2026-04-30 04:08 | 57.09926 | -174.72505 | 32541 ft | 527 kts | 66° |
| 2026-04-30 04:08 | 57.12788 | -174.60165 | 32537 ft | 526 kts | 66° |
| 2026-04-30 04:09 | 57.15648 | -174.47761 | 32538 ft | 527 kts | 66° |
| 2026-04-30 04:09 | 57.18484 | -174.35385 | 32540 ft | 527 kts | 66° |
| 2026-04-30 04:10 | 57.21319 | -174.22945 | 32528 ft | 527 kts | 66° |
| 2026-04-30 04:10 | 57.24122 | -174.10568 | 32537 ft | 527 kts | 66° |
| 2026-04-30 04:11 | 57.26944 | -173.98039 | 32534 ft | 527 kts | 66° |
| 2026-04-30 04:11 | 57.29726 | -173.85611 | 32532 ft | 529 kts | 66° |
| 2026-04-30 04:12 | 57.32533 | -173.72994 | 32534 ft | 528 kts | 67° |
| 2026-04-30 04:12 | 57.35339 | -173.60478 | 32525 ft | 529 kts | 66° |
| 2026-04-30 04:13 | 57.38185 | -173.47961 | 32526 ft | 529 kts | 65° |
| 2026-04-30 04:13 | 57.41011 | -173.35448 | 32529 ft | 529 kts | 66° |
| 2026-04-30 04:14 | 57.43826 | -173.22897 | 32506 ft | 530 kts | 66° |
| 2026-04-30 04:14 | 57.46647 | -173.10243 | 32533 ft | 531 kts | 66° |
| 2026-04-30 04:15 | 57.49444 | -172.97615 | 32537 ft | 532 kts | 66° |
| 2026-04-30 04:15 | 57.52224 | -172.84982 | 32537 ft | 532 kts | 66° |
| 2026-04-30 04:16 | 57.55018 | -172.72212 | 32518 ft | 531 kts | 66° |
| 2026-04-30 04:16 | 57.57784 | -172.59495 | 32524 ft | 532 kts | 66° |
| 2026-04-30 04:17 | 57.60533 | -172.46768 | 32523 ft | 532 kts | 66° |
| 2026-04-30 04:17 | 57.63278 | -172.33990 | 32546 ft | 531 kts | 67° |
| 2026-04-30 04:18 | 57.65999 | -172.21239 | 32538 ft | 533 kts | 67° |
| 2026-04-30 04:18 | 57.68717 | -172.08424 | 32533 ft | 532 kts | 68° |
| 2026-04-30 04:19 | 57.71417 | -171.95618 | 32542 ft | 534 kts | 68° |
| 2026-04-30 04:19 | 57.74106 | -171.82779 | 32538 ft | 534 kts | 67° |
| 2026-04-30 04:20 | 57.76804 | -171.69809 | 32561 ft | 534 kts | 68° |
| 2026-04-30 04:20 | 57.79483 | -171.56857 | 32536 ft | 533 kts | 68° |
| 2026-04-30 04:21 | 57.82129 | -171.43979 | 32554 ft | 535 kts | 67° |
| 2026-04-30 04:21 | 57.84791 | -171.30940 | 32534 ft | 534 kts | 68° |
| 2026-04-30 04:22 | 57.87419 | -171.17979 | 32528 ft | 534 kts | 68° |
| 2026-04-30 04:22 | 57.90048 | -171.04936 | 32550 ft | 536 kts | 68° |
| 2026-04-30 04:23 | 57.92661 | -170.91881 | 32532 ft | 533 kts | 68° |
| 2026-04-30 04:23 | 57.95254 | -170.78842 | 32531 ft | 535 kts | 68° |
| 2026-04-30 04:24 | 57.97969 | -170.65855 | 32536 ft | 536 kts | 66° |
| 2026-04-30 04:24 | 58.00769 | -170.52927 | 32563 ft | 535 kts | 66° |
| 2026-04-30 04:25 | 58.03558 | -170.39934 | 32566 ft | 535 kts | 66° |
| 2026-04-30 04:25 | 58.06311 | -170.26994 | 32518 ft | 536 kts | 67° |
| 2026-04-30 04:26 | 58.09067 | -170.13951 | 32542 ft | 535 kts | 67° |
| 2026-04-30 04:26 | 58.11806 | -170.00891 | 32552 ft | 533 kts | 67° |
| 2026-04-30 04:27 | 58.14505 | -169.87939 | 32552 ft | 532 kts | 68° |
| 2026-04-30 04:27 | 58.17202 | -169.74908 | 32545 ft | 531 kts | 68° |
| 2026-04-30 04:28 | 58.19873 | -169.61917 | 32546 ft | 532 kts | 68° |
| 2026-04-30 04:28 | 58.22527 | -169.48926 | 32567 ft | 531 kts | 68° |
| 2026-04-30 04:29 | 58.25180 | -169.35847 | 32524 ft | 530 kts | 68° |
| 2026-04-30 04:29 | 58.27802 | -169.22844 | 32586 ft | 530 kts | 68° |
| 2026-04-30 04:30 | 58.30417 | -169.09793 | 32550 ft | 531 kts | 69° |
| 2026-04-30 04:30 | 58.33011 | -168.96759 | 32541 ft | 531 kts | 69° |
| 2026-04-30 04:31 | 58.35610 | -168.83607 | 32538 ft | 532 kts | 69° |
| 2026-04-30 04:31 | 58.38182 | -168.70509 | 32578 ft | 531 kts | 69° |
| 2026-04-30 04:32 | 58.40744 | -168.57375 | 32557 ft | 530 kts | 69° |
| 2026-04-30 04:32 | 58.43280 | -168.44286 | 32574 ft | 530 kts | 69° |
| 2026-04-30 04:33 | 58.45820 | -168.31094 | 32545 ft | 530 kts | 70° |
| 2026-04-30 04:33 | 58.48338 | -168.17921 | 32581 ft | 530 kts | 70° |
| 2026-04-30 04:34 | 58.50839 | -168.04746 | 32570 ft | 529 kts | 70° |
| 2026-04-30 04:34 | 58.53325 | -167.91563 | 32612 ft | 530 kts | 70° |
| 2026-04-30 04:35 | 58.55790 | -167.78403 | 32562 ft | 528 kts | 70° |
| 2026-04-30 04:35 | 58.58247 | -167.65190 | 32604 ft | 529 kts | 70° |
| 2026-04-30 04:36 | 58.60700 | -167.51906 | 32566 ft | 528 kts | 70° |
| 2026-04-30 04:36 | 58.63129 | -167.38667 | 32618 ft | 529 kts | 70° |
| 2026-04-30 04:37 | 58.65545 | -167.25400 | 32584 ft | 529 kts | 71° |
| 2026-04-30 04:37 | 58.67953 | -167.12085 | 32586 ft | 531 kts | 71° |
| 2026-04-30 04:38 | 58.70713 | -166.98991 | 32584 ft | 530 kts | 59° |
| 2026-04-30 04:38 | 58.75033 | -166.87740 | 32584 ft | 525 kts | 46° |
| 2026-04-30 04:39 | 58.79858 | -166.77234 | 32604 ft | 526 kts | 46° |
| 2026-04-30 04:39 | 58.84635 | -166.66672 | 32601 ft | 524 kts | 46° |
| 2026-04-30 04:40 | 58.89411 | -166.55981 | 32610 ft | 526 kts | 46° |
| 2026-04-30 04:40 | 58.94162 | -166.45247 | 32628 ft | 525 kts | 47° |
| 2026-04-30 04:41 | 58.98852 | -166.34575 | 32612 ft | 525 kts | 48° |
| 2026-04-30 04:41 | 59.03583 | -166.23744 | 32616 ft | 526 kts | 48° |
| 2026-04-30 04:42 | 59.08268 | -166.12962 | 32622 ft | 525 kts | 48° |
| 2026-04-30 04:42 | 59.12964 | -166.02101 | 32628 ft | 526 kts | 48° |
| 2026-04-30 04:43 | 59.17632 | -165.91249 | 32630 ft | 524 kts | 48° |
| 2026-04-30 04:43 | 59.22284 | -165.80382 | 32662 ft | 525 kts | 48° |
| 2026-04-30 04:44 | 59.26950 | -165.69432 | 32597 ft | 526 kts | 49° |
| 2026-04-30 04:44 | 59.31585 | -165.58502 | 32650 ft | 526 kts | 48° |
| 2026-04-30 04:45 | 59.36229 | -165.47499 | 32639 ft | 525 kts | 48° |
| 2026-04-30 04:45 | 59.40858 | -165.36478 | 32667 ft | 526 kts | 49° |
| 2026-04-30 04:46 | 59.45457 | -165.25478 | 32658 ft | 525 kts | 50° |
| 2026-04-30 04:46 | 59.50082 | -165.14362 | 32660 ft | 525 kts | 50° |
| 2026-04-30 04:47 | 59.54665 | -165.03294 | 32653 ft | 524 kts | 50° |
| 2026-04-30 04:47 | 59.59235 | -164.92207 | 32678 ft | 524 kts | 50° |
| 2026-04-30 04:48 | 59.63841 | -164.80978 | 32659 ft | 525 kts | 50° |
| 2026-04-30 04:48 | 59.68419 | -164.69763 | 32655 ft | 526 kts | 50° |
| 2026-04-30 04:49 | 59.72975 | -164.58546 | 32656 ft | 525 kts | 50° |
| 2026-04-30 04:49 | 59.77502 | -164.47351 | 32675 ft | 525 kts | 50° |
| 2026-04-30 04:50 | 59.82052 | -164.36043 | 32708 ft | 525 kts | 50° |
| 2026-04-30 04:50 | 59.86591 | -164.24705 | 32736 ft | 525 kts | 51° |
| 2026-04-30 04:51 | 59.91098 | -164.13393 | 32713 ft | 526 kts | 51° |
| 2026-04-30 04:51 | 59.95635 | -164.01950 | 32696 ft | 525 kts | 51° |
| 2026-04-30 04:52 | 60.00120 | -163.90582 | 32689 ft | 525 kts | 51° |
| 2026-04-30 04:52 | 60.04625 | -163.79109 | 32701 ft | 524 kts | 51° |
| 2026-04-30 04:53 | 60.09103 | -163.67647 | 32711 ft | 524 kts | 51° |
| 2026-04-30 04:53 | 60.13544 | -163.56221 | 32708 ft | 523 kts | 51° |
| 2026-04-30 04:54 | 60.18010 | -163.44678 | 32702 ft | 523 kts | 51° |
| 2026-04-30 04:54 | 60.22445 | -163.33157 | 32715 ft | 523 kts | 52° |
| 2026-04-30 04:55 | 60.26850 | -163.21658 | 32720 ft | 523 kts | 52° |
| 2026-04-30 04:55 | 60.31285 | -163.10022 | 32739 ft | 523 kts | 52° |
| 2026-04-30 04:56 | 60.35690 | -162.98407 | 32741 ft | 521 kts | 52° |
| 2026-04-30 04:56 | 60.40071 | -162.86795 | 32732 ft | 522 kts | 52° |
| 2026-04-30 04:57 | 60.44443 | -162.75150 | 32744 ft | 523 kts | 52° |
| 2026-04-30 04:57 | 60.48805 | -162.63475 | 32760 ft | 522 kts | 52° |
| 2026-04-30 04:58 | 60.53144 | -162.51802 | 32755 ft | 521 kts | 52° |
| 2026-04-30 04:58 | 60.57485 | -162.40063 | 32751 ft | 521 kts | 52° |
| 2026-04-30 04:59 | 60.61813 | -162.28302 | 32728 ft | 522 kts | 53° |
| 2026-04-30 04:59 | 60.66163 | -162.16420 | 32746 ft | 522 kts | 53° |
| 2026-04-30 05:00 | 60.70484 | -162.04556 | 32743 ft | 522 kts | 53° |
| 2026-04-30 05:00 | 60.74797 | -161.92653 | 32759 ft | 522 kts | 53° |
| 2026-04-30 05:01 | 60.78850 | -161.80467 | 32773 ft | 521 kts | 61° |
| 2026-04-30 05:01 | 60.82309 | -161.67453 | 32780 ft | 521 kts | 62° |
| 2026-04-30 05:02 | 60.85701 | -161.54436 | 32780 ft | 521 kts | 62° |
| 2026-04-30 05:02 | 60.89082 | -161.41328 | 32788 ft | 522 kts | 62° |
| 2026-04-30 05:03 | 60.92461 | -161.28125 | 32789 ft | 520 kts | 63° |
| 2026-04-30 05:03 | 60.95788 | -161.15028 | 32778 ft | 521 kts | 63° |
| 2026-04-30 05:04 | 60.99124 | -161.01808 | 32792 ft | 520 kts | 63° |
| 2026-04-30 05:04 | 61.02438 | -160.88594 | 32775 ft | 521 kts | 63° |
| 2026-04-30 05:05 | 61.05769 | -160.75230 | 32791 ft | 522 kts | 63° |
| 2026-04-30 05:05 | 61.09052 | -160.61975 | 32778 ft | 522 kts | 63° |
| 2026-04-30 05:06 | 61.13974 | -160.41957 | 32771 ft | 521 kts | 63° |
| 2026-04-30 05:06 | 61.17239 | -160.28569 | 32770 ft | 520 kts | 64° |
| 2026-04-30 05:07 | 61.20484 | -160.15184 | 32779 ft | 520 kts | 64° |
| 2026-04-30 05:07 | 61.23709 | -160.01804 | 32771 ft | 519 kts | 64° |
| 2026-04-30 05:08 | 61.26911 | -159.88429 | 32781 ft | 519 kts | 64° |
| 2026-04-30 05:08 | 61.30092 | -159.75067 | 32797 ft | 520 kts | 64° |
| 2026-04-30 05:09 | 61.33268 | -159.61641 | 32789 ft | 519 kts | 64° |
| 2026-04-30 05:09 | 61.36435 | -159.48169 | 32802 ft | 519 kts | 64° |
| 2026-04-30 05:10 | 61.39576 | -159.34723 | 32806 ft | 518 kts | 65° |
| 2026-04-30 05:10 | 61.42725 | -159.21159 | 32808 ft | 518 kts | 65° |
| 2026-04-30 05:11 | 61.45836 | -159.07678 | 32811 ft | 518 kts | 65° |
| 2026-04-30 05:11 | 61.48928 | -158.94192 | 32821 ft | 518 kts | 65° |
| 2026-04-30 05:12 | 61.52021 | -158.80614 | 32800 ft | 516 kts | 65° |
| 2026-04-30 05:12 | 61.55093 | -158.67044 | 32813 ft | 517 kts | 65° |
| 2026-04-30 05:13 | 61.58160 | -158.53407 | 32825 ft | 517 kts | 65° |
| 2026-04-30 05:13 | 61.61202 | -158.39796 | 32813 ft | 516 kts | 65° |
| 2026-04-30 05:14 | 61.64222 | -158.26198 | 32822 ft | 515 kts | 66° |
| 2026-04-30 05:14 | 61.67226 | -158.12585 | 32842 ft | 515 kts | 66° |
| 2026-04-30 05:15 | 61.70221 | -157.98924 | 32816 ft | 516 kts | 66° |
| 2026-04-30 05:15 | 61.73192 | -157.85284 | 32813 ft | 515 kts | 66° |
| 2026-04-30 05:16 | 61.76167 | -157.71533 | 32799 ft | 515 kts | 66° |
| 2026-04-30 05:16 | 61.79118 | -157.57809 | 32826 ft | 515 kts | 65° |
| 2026-04-30 05:17 | 61.82039 | -157.44132 | 32871 ft | 514 kts | 65° |
| 2026-04-30 05:17 | 61.84959 | -157.30370 | 32876 ft | 512 kts | 66° |
| 2026-04-30 05:18 | 61.87852 | -157.16643 | 32874 ft | 513 kts | 66° |
| 2026-04-30 05:18 | 61.90728 | -157.02904 | 32886 ft | 512 kts | 66° |
| 2026-04-30 05:19 | 61.93584 | -156.89174 | 32868 ft | 513 kts | 66° |
| 2026-04-30 05:19 | 61.96437 | -156.75365 | 32885 ft | 513 kts | 66° |
| 2026-04-30 05:20 | 61.99273 | -156.61546 | 32891 ft | 514 kts | 66° |
| 2026-04-30 05:20 | 62.02116 | -156.47600 | 32882 ft | 512 kts | 66° |
| 2026-04-30 05:21 | 62.04904 | -156.33830 | 32889 ft | 510 kts | 68° |
| 2026-04-30 05:21 | 62.07708 | -156.19882 | 32903 ft | 512 kts | 67° |
| 2026-04-30 05:22 | 62.10487 | -156.05968 | 32896 ft | 511 kts | 68° |
| 2026-04-30 05:22 | 62.13235 | -155.92113 | 32878 ft | 510 kts | 68° |
| 2026-04-30 05:23 | 62.15992 | -155.78120 | 32882 ft | 509 kts | 68° |
| 2026-04-30 05:23 | 62.18708 | -155.64235 | 32875 ft | 510 kts | 68° |
| 2026-04-30 05:24 | 62.21429 | -155.50232 | 32867 ft | 510 kts | 68° |
| 2026-04-30 05:24 | 62.24132 | -155.36218 | 32869 ft | 510 kts | 68° |
| 2026-04-30 05:25 | 62.26825 | -155.22159 | 32884 ft | 510 kts | 69° |
| 2026-04-30 05:25 | 62.29476 | -155.08225 | 32884 ft | 510 kts | 69° |
| 2026-04-30 05:26 | 62.32142 | -154.94107 | 32875 ft | 509 kts | 69° |
| 2026-04-30 05:26 | 62.34775 | -154.80066 | 32893 ft | 508 kts | 69° |
| 2026-04-30 05:27 | 62.37396 | -154.65988 | 32893 ft | 508 kts | 69° |
| 2026-04-30 05:27 | 62.40001 | -154.51900 | 32902 ft | 507 kts | 69° |
| 2026-04-30 05:28 | 62.42586 | -154.37816 | 32908 ft | 509 kts | 69° |
| 2026-04-30 05:28 | 62.45168 | -154.23644 | 32909 ft | 508 kts | 70° |
| 2026-04-30 05:29 | 62.47725 | -154.09508 | 32921 ft | 507 kts | 70° |
| 2026-04-30 05:29 | 62.50256 | -153.95409 | 32923 ft | 507 kts | 70° |
| 2026-04-30 05:30 | 62.52800 | -153.81137 | 32926 ft | 508 kts | 70° |
| 2026-04-30 05:30 | 62.55313 | -153.66937 | 32923 ft | 508 kts | 70° |
| 2026-04-30 05:31 | 62.57805 | -153.52743 | 32935 ft | 507 kts | 70° |
| 2026-04-30 05:31 | 62.60278 | -153.38557 | 32928 ft | 507 kts | 70° |
| 2026-04-30 05:32 | 62.62761 | -153.24206 | 32890 ft | 507 kts | 71° |
| 2026-04-30 05:32 | 62.65199 | -153.10007 | 32876 ft | 508 kts | 71° |
| 2026-04-30 05:33 | 62.67638 | -152.95692 | 32865 ft | 506 kts | 71° |
| 2026-04-30 05:33 | 62.70060 | -152.81369 | 32849 ft | 505 kts | 71° |
| 2026-04-30 05:34 | 62.72469 | -152.67018 | 32836 ft | 505 kts | 71° |
| 2026-04-30 05:34 | 62.74847 | -152.52733 | 32842 ft | 504 kts | 71° |
| 2026-04-30 05:35 | 62.77215 | -152.38402 | 32851 ft | 505 kts | 71° |
| 2026-04-30 05:35 | 62.79579 | -152.23982 | 32861 ft | 506 kts | 72° |
| 2026-04-30 05:36 | 62.81918 | -152.09607 | 32845 ft | 504 kts | 72° |
| 2026-04-30 05:36 | 62.84245 | -151.95186 | 32832 ft | 504 kts | 72° |
| 2026-04-30 05:37 | 62.86556 | -151.80757 | 32822 ft | 504 kts | 72° |
| 2026-04-30 05:37 | 62.88700 | -151.67261 | 32832 ft | 503 kts | 72° |
| 2026-04-30 05:38 | 62.90980 | -151.52799 | 32844 ft | 503 kts | 72° |
| 2026-04-30 05:38 | 62.93236 | -151.38370 | 32833 ft | 503 kts | 72° |
| 2026-04-30 05:39 | 62.95493 | -151.23824 | 32799 ft | 502 kts | 73° |
| 2026-04-30 05:39 | 62.97709 | -151.09422 | 32795 ft | 503 kts | 73° |
| 2026-04-30 05:40 | 62.99927 | -150.94888 | 32775 ft | 502 kts | 73° |
| 2026-04-30 05:40 | 63.02124 | -150.80371 | 32842 ft | 502 kts | 73° |
| 2026-04-30 05:41 | 63.04313 | -150.65793 | 32927 ft | 504 kts | 72° |
| 2026-04-30 05:41 | 63.06488 | -150.51175 | 32928 ft | 502 kts | 73° |
| 2026-04-30 05:42 | 63.08638 | -150.36615 | 32909 ft | 501 kts | 73° |
| 2026-04-30 05:42 | 63.10781 | -150.21973 | 32864 ft | 501 kts | 74° |
| 2026-04-30 05:43 | 63.12888 | -150.07452 | 32847 ft | 500 kts | 74° |
| 2026-04-30 05:43 | 63.15000 | -149.92775 | 32862 ft | 500 kts | 74° |
| 2026-04-30 05:44 | 63.17082 | -149.78175 | 32891 ft | 500 kts | 74° |
| 2026-04-30 05:44 | 63.19154 | -149.63525 | 32910 ft | 499 kts | 74° |
| 2026-04-30 05:45 | 63.21203 | -149.48909 | 32907 ft | 499 kts | 74° |
| 2026-04-30 05:45 | 63.23234 | -149.34296 | 32918 ft | 497 kts | 75° |
| 2026-04-30 05:46 | 63.24227 | -149.27112 | 32914 ft | 482 kts | 75° |
| 2026-04-30 05:46 | 63.25191 | -149.20108 | 32904 ft | 466 kts | 75° |
| 2026-04-30 05:46 | 63.26136 | -149.13371 | 32674 ft | 460 kts | 72° |
| 2026-04-30 05:46 | 63.27422 | -149.06845 | 31962 ft | 472 kts | 63° |
| 2026-04-30 05:47 | 63.29212 | -149.00594 | 30987 ft | 490 kts | 53° |
| 2026-04-30 05:47 | 63.31470 | -148.94931 | 29924 ft | 506 kts | 43° |
| 2026-04-30 05:47 | 63.33861 | -148.90593 | 29250 ft | 509 kts | 34° |
| 2026-04-30 05:47 | 63.36665 | -148.87007 | 28985 ft | 499 kts | 24° |
| 2026-04-30 05:48 | 63.39849 | -148.84302 | 28934 ft | 481 kts | 14° |
| 2026-04-30 05:48 | 63.43054 | -148.82785 | 28931 ft | 470 kts | 5° |
| 2026-04-30 05:48 | 63.49629 | -148.81712 | 28341 ft | 477 kts | 4° |
| 2026-04-30 05:49 | 63.52908 | -148.80775 | 27453 ft | 486 kts | 7° |
| 2026-04-30 05:49 | 63.56234 | -148.79489 | 26689 ft | 489 kts | 9° |
| 2026-04-30 05:49 | 63.59518 | -148.77992 | 26330 ft | 479 kts | 11° |
| 2026-04-30 05:49 | 63.62738 | -148.76393 | 26271 ft | 462 kts | 12° |
| 2026-04-30 05:50 | 63.65756 | -148.74811 | 25849 ft | 445 kts | 12° |
| 2026-04-30 05:50 | 63.68714 | -148.73192 | 25068 ft | 437 kts | 13° |
| 2026-04-30 05:50 | 63.71627 | -148.71536 | 24145 ft | 431 kts | 13° |
| 2026-04-30 05:50 | 63.74467 | -148.69876 | 23245 ft | 424 kts | 14° |
| 2026-04-30 05:51 | 63.77283 | -148.68195 | 22329 ft | 417 kts | 14° |
| 2026-04-30 05:51 | 63.80067 | -148.66504 | 21450 ft | 410 kts | 15° |
| 2026-04-30 05:51 | 63.82758 | -148.64850 | 20592 ft | 403 kts | 15° |
| 2026-04-30 05:51 | 63.85422 | -148.63196 | 19725 ft | 397 kts | 15° |
| 2026-04-30 05:52 | 63.88052 | -148.61552 | 18848 ft | 390 kts | 15° |
| 2026-04-30 05:52 | 63.90597 | -148.59952 | 17989 ft | 383 kts | 15° |
| 2026-04-30 05:52 | 63.93146 | -148.58340 | 17065 ft | 379 kts | 15° |
| 2026-04-30 05:52 | 63.95659 | -148.56746 | 16156 ft | 373 kts | 15° |
| 2026-04-30 05:53 | 63.98099 | -148.55196 | 15295 ft | 367 kts | 16° |
| 2026-04-30 05:53 | 64.00521 | -148.53650 | 14433 ft | 362 kts | 16° |
| 2026-04-30 05:53 | 64.02930 | -148.52109 | 13545 ft | 357 kts | 16° |
| 2026-04-30 05:53 | 64.05280 | -148.50600 | 12848 ft | 347 kts | 15° |
| 2026-04-30 05:54 | 64.07525 | -148.49155 | 12467 ft | 331 kts | 15° |
| 2026-04-30 05:54 | 64.09676 | -148.47766 | 12196 ft | 313 kts | 15° |
| 2026-04-30 05:54 | 64.11719 | -148.46443 | 12008 ft | 295 kts | 15° |
| 2026-04-30 05:54 | 64.13651 | -148.45192 | 11714 ft | 284 kts | 15° |
| 2026-04-30 05:55 | 64.15523 | -148.43977 | 11234 ft | 280 kts | 15° |
| 2026-04-30 05:55 | 64.17376 | -148.42773 | 10660 ft | 280 kts | 15° |
| 2026-04-30 05:55 | 64.19230 | -148.41566 | 10122 ft | 277 kts | 15° |
| 2026-04-30 05:55 | 64.21073 | -148.40366 | 9630 ft | 274 kts | 15° |
| 2026-04-30 05:56 | 64.22897 | -148.39175 | 9235 ft | 273 kts | 15° |
| 2026-04-30 05:56 | 64.24718 | -148.37985 | 8861 ft | 272 kts | 15° |
| 2026-04-30 05:56 | 64.26520 | -148.36804 | 8507 ft | 269 kts | 15° |
| 2026-04-30 05:56 | 64.28312 | -148.35631 | 8129 ft | 268 kts | 15° |
| 2026-04-30 05:57 | 64.30096 | -148.34460 | 7756 ft | 267 kts | 17° |
| 2026-04-30 05:57 | 64.31876 | -148.33290 | 7408 ft | 265 kts | 17° |
| 2026-04-30 05:57 | 64.33623 | -148.32141 | 6984 ft | 267 kts | 17° |
| 2026-04-30 05:57 | 64.35420 | -148.30955 | 6498 ft | 269 kts | 17° |
| 2026-04-30 05:58 | 64.37193 | -148.29800 | 6148 ft | 267 kts | 17° |
| 2026-04-30 05:58 | 64.38980 | -148.28635 | 5834 ft | 263 kts | 17° |
| 2026-04-30 05:58 | 64.40722 | -148.27496 | 5538 ft | 260 kts | 17° |
| 2026-04-30 05:58 | 64.42425 | -148.26382 | 5244 ft | 256 kts | 17° |
| 2026-04-30 05:59 | 64.44057 | -148.25313 | 5058 ft | 250 kts | 17° |
| 2026-04-30 05:59 | 64.45782 | -148.24675 | 5028 ft | 253 kts | 4° |
| 2026-04-30 05:59 | 64.47540 | -148.24576 | 5033 ft | 253 kts | 2° |
| 2026-04-30 05:59 | 64.49303 | -148.24521 | 5038 ft | 253 kts | 2° |
| 2026-04-30 06:00 | 64.51045 | -148.24468 | 5038 ft | 253 kts | 2° |
| 2026-04-30 06:00 | 64.52811 | -148.24412 | 5038 ft | 253 kts | 2° |
| 2026-04-30 06:00 | 64.54533 | -148.24361 | 5030 ft | 242 kts | 2° |
| 2026-04-30 06:00 | 64.56168 | -148.24312 | 5012 ft | 228 kts | 2° |
| 2026-04-30 06:01 | 64.57709 | -148.24266 | 5027 ft | 214 kts | 2° |
| 2026-04-30 06:01 | 64.59152 | -148.24222 | 5009 ft | 205 kts | 2° |
| 2026-04-30 06:01 | 64.60536 | -148.23850 | 5005 ft | 201 kts | 22° |
| 2026-04-30 06:01 | 64.61741 | -148.22237 | 4939 ft | 202 kts | 35° |
| 2026-04-30 06:02 | 64.62852 | -148.20271 | 4740 ft | 199 kts | 39° |
| 2026-04-30 06:02 | 64.63931 | -148.18283 | 4486 ft | 198 kts | 38° |
| 2026-04-30 06:02 | 64.65015 | -148.16309 | 4207 ft | 198 kts | 38° |
| 2026-04-30 06:02 | 64.66097 | -148.14352 | 3960 ft | 197 kts | 38° |
| 2026-04-30 06:03 | 64.67181 | -148.12396 | 3705 ft | 197 kts | 37° |
| 2026-04-30 06:03 | 64.68253 | -148.10461 | 3457 ft | 196 kts | 37° |
| 2026-04-30 06:03 | 64.69323 | -148.08525 | 3209 ft | 196 kts | 38° |
| 2026-04-30 06:03 | 64.70401 | -148.06567 | 2955 ft | 195 kts | 37° |
| 2026-04-30 06:04 | 64.71471 | -148.04627 | 2697 ft | 195 kts | 37° |
| 2026-04-30 06:04 | 64.72540 | -148.02683 | 2440 ft | 194 kts | 37° |
| 2026-04-30 06:04 | 64.73593 | -148.00766 | 2186 ft | 192 kts | 37° |
| 2026-04-30 06:05 | 64.75643 | -147.97028 | 1693 ft | 176 kts | 37° |
| 2026-04-30 06:05 | 64.76580 | -147.95319 | 1462 ft | 165 kts | 37° |
| 2026-04-30 06:05 | 64.77462 | -147.93707 | 1241 ft | 157 kts | 37° |
| 2026-04-30 06:05 | 64.78287 | -147.92201 | 1038 ft | 147 kts | 37° |
| 2026-04-30 06:06 | 64.79077 | -147.90756 | 826 ft | 144 kts | 37° |
| 2026-04-30 06:06 | 64.79861 | -147.89323 | 612 ft | 142 kts | 37° |
| 2026-04-30 06:06 | 64.80637 | -147.87898 | 452 ft | 140 kts | 37° |
| 2026-04-30 06:06 | 64.81310 | -147.86665 | 447 ft | 105 kts | 38° |
| 2026-04-30 06:07 | 64.81789 | -147.85786 | 446 ft | 69 kts | 38° |
| 2026-04-30 06:07 | 64.81917 | -147.85585 | 446 ft | 6 kts | 333° |
| 2026-04-30 06:07 | 64.81951 | -147.85686 | 446 ft | 8 kts | 302° |
| 2026-04-30 06:07 | 64.81949 | -147.85802 | 446 ft | 8 kts | 234° |
| 2026-04-30 06:08 | 64.81908 | -147.85895 | 446 ft | 8 kts | 218° |
| 2026-04-30 06:08 | 64.81862 | -147.85982 | 446 ft | 8 kts | 218° |
| 2026-04-30 06:08 | 64.81802 | -147.86093 | 446 ft | 13 kts | 218° |
| 2026-04-30 06:08 | 64.81713 | -147.86256 | 446 ft | 18 kts | 218° |
| 2026-04-30 06:09 | 64.81601 | -147.86462 | 446 ft | 22 kts | 218° |
| 2026-04-30 06:09 | 64.81477 | -147.86691 | 446 ft | 22 kts | 218° |
| 2026-04-30 06:09 | 64.81360 | -147.86905 | 446 ft | 20 kts | 218° |
| 2026-04-30 06:09 | 64.81249 | -147.87109 | 447 ft | 19 kts | 218° |
| 2026-04-30 06:10 | 64.81145 | -147.87302 | 447 ft | 18 kts | 218° |
| 2026-04-30 06:10 | 64.81046 | -147.87482 | 447 ft | 17 kts | 218° |
| 2026-04-30 06:10 | 64.80951 | -147.87657 | 447 ft | 16 kts | 218° |
| 2026-04-30 06:10 | 64.80861 | -147.87822 | 447 ft | 16 kts | 218° |
| 2026-04-30 06:11 | 64.80773 | -147.87984 | 447 ft | 15 kts | 218° |
| 2026-04-30 06:11 | 64.80690 | -147.88138 | 447 ft | 15 kts | 218° |
| 2026-04-30 06:11 | 64.80608 | -147.88286 | 447 ft | 14 kts | 218° |
| 2026-04-30 06:11 | 64.80531 | -147.88431 | 447 ft | 14 kts | 218° |
| 2026-04-30 06:12 | 64.80454 | -147.88571 | 447 ft | 13 kts | 218° |
| 2026-04-30 06:12 | 64.80388 | -147.88692 | 447 ft | 9 kts | 218° |
| 2026-04-30 06:12 | 64.80357 | -147.88808 | 447 ft | 8 kts | 277° |
| 2026-04-30 06:12 | 64.80389 | -147.88925 | 447 ft | 8 kts | 307° |
| 2026-04-30 06:13 | 64.80426 | -147.89043 | 447 ft | 9 kts | 307° |
| 2026-04-30 06:13 | 64.80461 | -147.89166 | 447 ft | 9 kts | 288° |
| 2026-04-30 06:13 | 64.80436 | -147.89284 | 447 ft | 9 kts | 220° |
| 2026-04-30 06:13 | 64.80386 | -147.89371 | 447 ft | 8 kts | 200° |
| 2026-04-30 06:14 | 64.80335 | -147.89310 | 447 ft | 8 kts | 130° |
| 2026-04-30 06:14 | 64.80319 | -147.89265 | 447 ft | 0 kts | 128° |